Time;durP1;ratioP1;P1;durP2;ratioP2;P2;SDS_P1;SDS_P2;PMS_P1;PMS_P2;Temp;Humidity;BMP_temperature;BMP_pressure;BME280_temperature;BME280_humidity;BME280_pressure;Samples;Min_cycle;Max_cycle;Signal;HPM_P1;HPM_P2
2022/01/17 00:01:16;;;;;;;14.60;2.45;;;5.90;99.90;;;;;;5065588;28;20798;-51
2022/01/17 00:03:42;;;;;;;16.20;2.15;;;5.80;99.90;;;;;;5066149;28;20036;-51
2022/01/17 00:06:08;;;;;;;12.82;2.65;;;5.90;99.90;;;;;;5060923;28;20485;-50
2022/01/17 00:08:33;;;;;;;12.02;1.92;;;5.80;99.90;;;;;;5064869;28;20192;-51
2022/01/17 00:11:00;;;;;;;13.18;1.92;;;5.80;99.90;;;;;;5064815;28;20091;-52
2022/01/17 00:13:28;;;;;;;13.65;2.28;;;5.80;99.90;;;;;;5064465;28;20521;-49
2022/01/17 00:15:59;;;;;;;15.43;2.85;;;5.80;99.90;;;;;;5065797;28;20049;-51
2022/01/17 00:18:41;;;;;;;17.48;3.05;;;5.80;99.90;;;;;;5069019;28;20116;-51
2022/01/17 00:21:07;;;;;;;15.32;2.80;;;5.80;99.90;;;;;;5057792;28;20076;-52
2022/01/17 00:23:33;;;;;;;13.60;2.42;;;5.90;99.90;;;;;;5062104;28;20064;-53
2022/01/17 00:25:59;;;;;;;15.10;2.45;;;5.80;99.90;;;;;;5058602;28;20479;-53
2022/01/17 00:28:24;;;;;;;19.92;2.67;;;5.90;99.90;;;;;;5058850;28;20219;-51
2022/01/17 00:30:50;;;;;;;11.30;2.15;;;5.80;99.90;;;;;;5057287;28;20048;-55
2022/01/17 00:33:16;;;;;;;14.15;2.40;;;5.70;99.90;;;;;;5062550;28;20072;-50
2022/01/17 00:35:41;;;;;;;15.27;2.08;;;5.70;99.90;;;;;;5065426;28;20037;-48
2022/01/17 00:38:07;;;;;;;14.23;2.75;;;5.60;99.90;;;;;;5060809;28;20041;-49
2022/01/17 00:40:33;;;;;;;13.15;2.88;;;5.50;99.90;;;;;;5057391;28;20495;-53
2022/01/17 00:42:59;;;;;;;18.63;3.67;;;5.50;99.90;;;;;;5062624;28;20087;-50
2022/01/17 00:45:27;;;;;;;11.20;2.47;;;5.50;99.90;;;;;;5065886;28;20049;-54
2022/01/17 00:47:57;;;;;;;13.00;2.55;;;5.50;99.90;;;;;;5064303;28;20045;-53
2022/01/17 00:50:24;;;;;;;16.50;2.20;;;5.50;99.90;;;;;;5061103;28;20048;-53
2022/01/17 00:52:51;;;;;;;13.68;3.75;;;5.50;99.90;;;;;;5060917;28;20479;-51
2022/01/17 00:55:16;;;;;;;12.40;2.40;;;5.50;99.90;;;;;;5062897;28;20451;-51
2022/01/17 00:57:42;;;;;;;15.85;2.35;;;5.50;99.90;;;;;;5061914;28;20133;-49
2022/01/17 01:00:09;;;;;;;17.35;2.47;;;5.50;99.90;;;;;;5058121;28;20055;-51
2022/01/17 01:02:36;;;;;;;11.00;2.10;;;5.50;99.90;;;;;;5061747;28;20040;-50
2022/01/17 01:05:02;;;;;;;7.80;1.77;;;5.50;99.90;;;;;;5058884;28;20505;-52
2022/01/17 01:07:27;;;;;;;11.88;2.13;;;5.40;99.90;;;;;;5061367;28;20049;-52
2022/01/17 01:10:03;;;;;;;11.93;1.88;;;5.40;99.90;;;;;;5058274;28;20542;-53
2022/01/17 01:12:29;;;;;;;11.30;1.77;;;5.40;99.90;;;;;;5058880;28;20060;-53
2022/01/17 01:14:54;;;;;;;15.98;2.65;;;5.50;99.90;;;;;;5056704;28;20045;-50
2022/01/17 01:17:33;;;;;;;13.65;2.00;;;5.50;99.90;;;;;;5058324;28;20501;-52
2022/01/17 01:20:30;;;;;;;17.67;2.40;;;5.50;99.90;;;;;;5055879;28;20184;-53
2022/01/17 01:28:16;;;;;;;12.50;1.80;;;5.60;99.90;;;;;;5058742;28;20060;-53
2022/01/17 01:30:46;;;;;;;14.38;2.90;;;5.50;99.90;;;;;;5054707;28;20041;-50
2022/01/17 01:33:16;;;;;;;10.00;1.90;;;5.50;99.90;;;;;;5054621;28;20394;-52
2022/01/17 01:35:46;;;;;;;12.77;2.40;;;5.50;99.90;;;;;;5060921;28;20052;-51
2022/01/17 01:38:11;;;;;;;13.88;2.35;;;5.50;99.90;;;;;;5058054;28;20071;-52
2022/01/17 01:40:38;;;;;;;13.40;2.40;;;5.50;99.90;;;;;;5063988;28;20058;-50
2022/01/17 01:43:04;;;;;;;15.52;2.50;;;5.50;99.90;;;;;;5058953;28;20348;-52
2022/01/17 01:45:30;;;;;;;14.80;3.08;;;5.40;99.90;;;;;;5059798;28;20063;-52
2022/01/17 01:47:56;;;;;;;9.90;2.33;;;5.40;99.90;;;;;;5059375;28;20498;-51
2022/01/17 01:50:22;;;;;;;14.43;2.22;;;5.40;99.90;;;;;;5062256;28;20033;-54
2022/01/17 01:52:48;;;;;;;12.27;2.30;;;5.40;99.90;;;;;;5058084;28;21091;-51
2022/01/17 01:55:18;;;;;;;20.38;2.83;;;5.40;99.90;;;;;;5056862;28;20052;-52
2022/01/17 01:57:44;;;;;;;12.20;2.10;;;5.40;99.90;;;;;;5063401;28;20714;-53
2022/01/17 02:00:13;;;;;;;16.08;2.63;;;5.40;99.90;;;;;;5053871;28;20037;-50
2022/01/17 02:02:39;;;;;;;14.10;2.33;;;5.40;99.90;;;;;;5062806;28;20406;-54
2022/01/17 02:05:05;;;;;;;16.45;2.78;;;5.30;99.90;;;;;;5058756;28;20048;-53
2022/01/17 02:07:31;;;;;;;17.55;3.03;;;5.30;99.90;;;;;;5057886;28;20064;-53
2022/01/17 02:09:57;;;;;;;17.15;2.72;;;5.30;99.90;;;;;;5057780;28;20041;-55
2022/01/17 02:12:25;;;;;;;12.55;2.35;;;5.30;99.90;;;;;;5057799;28;20044;-52
2022/01/17 02:14:53;;;;;;;;;;;5.30;99.90;;;;;;5057843;28;20562;-48
2022/01/17 02:17:20;;;;;;;17.63;2.97;;;5.30;99.90;;;;;;5055795;28;20046;-49
2022/01/17 02:19:52;;;;;;;17.17;2.85;;;5.30;99.90;;;;;;5059434;28;20040;-52
2022/01/17 02:22:17;;;;;;;16.38;3.00;;;5.20;99.90;;;;;;5059893;28;20506;-51
2022/01/17 02:24:43;;;;;;;15.70;2.65;;;5.20;99.90;;;;;;5059086;28;20044;-49
2022/01/17 02:27:08;;;;;;;18.80;2.90;;;5.20;99.90;;;;;;5059398;28;20037;-53
2022/01/17 02:29:34;;;;;;;15.82;2.72;;;5.10;99.90;;;;;;5055456;28;20513;-53
2022/01/17 02:31:59;;;;;;;16.65;3.35;;;5.10;99.90;;;;;;5058976;28;20036;-51
2022/01/17 02:34:25;;;;;;;16.85;2.78;;;5.10;99.90;;;;;;5057280;28;20083;-52
2022/01/17 02:36:51;;;;;;;11.60;2.80;;;5.00;99.90;;;;;;5054484;28;20087;-53
2022/01/17 02:39:16;;;;;;;20.15;2.30;;;5.10;99.90;;;;;;5057503;28;20037;-50
2022/01/17 02:41:46;;;;;;;13.70;2.30;;;5.10;99.90;;;;;;5055840;28;20132;-48
2022/01/17 02:44:12;;;;;;;13.20;2.45;;;5.00;99.90;;;;;;5053844;28;20052;-50
2022/01/17 02:46:38;;;;;;;16.73;2.67;;;5.00;99.90;;;;;;5056639;28;20044;-49
2022/01/17 02:49:05;;;;;;;17.27;2.85;;;4.90;99.90;;;;;;5054161;28;20395;-51
2022/01/17 02:51:32;;;;;;;17.83;2.73;;;4.90;99.90;;;;;;5058286;28;20994;-49
2022/01/17 02:53:58;;;;;;;17.40;2.30;;;4.90;99.90;;;;;;5056404;28;20567;-52
2022/01/17 02:56:24;;;;;;;18.38;2.88;;;4.80;99.90;;;;;;5060297;28;20398;-50
2022/01/17 02:58:49;;;;;;;19.40;2.70;;;4.80;99.90;;;;;;5059048;28;20029;-54
2022/01/17 03:01:24;;;;;;;17.98;3.15;;;4.70;99.90;;;;;;5062998;28;20475;-53
2022/01/17 03:03:50;;;;;;;18.95;2.97;;;4.70;99.90;;;;;;5065687;28;20075;-51
2022/01/17 03:06:17;;;;;;;17.60;3.05;;;4.60;99.90;;;;;;5063966;28;20044;-50
2022/01/17 03:08:43;;;;;;;18.63;2.67;;;4.60;99.90;;;;;;5064088;28;20035;-55
2022/01/17 03:11:16;;;;;;;20.50;2.95;;;4.60;99.90;;;;;;5061509;28;20064;-49
2022/01/17 03:13:42;;;;;;;21.52;3.30;;;4.60;99.90;;;;;;5061502;28;20109;-50
2022/01/17 03:16:11;;;;;;;19.63;3.17;;;4.50;99.90;;;;;;5058217;28;20557;-49
2022/01/17 03:18:42;;;;;;;18.27;2.88;;;4.50;99.90;;;;;;5058840;28;20047;-55
2022/01/17 03:21:09;;;;;;;16.02;2.97;;;4.50;99.90;;;;;;5056446;28;20040;-53
2022/01/17 03:23:36;;;;;;;20.23;3.17;;;4.40;99.90;;;;;;5058594;28;20048;-51
2022/01/17 03:26:04;;;;;;;22.75;2.97;;;4.40;99.90;;;;;;5058716;28;20049;-52
2022/01/17 03:28:30;;;;;;;17.65;2.75;;;4.40;99.90;;;;;;5064077;28;20060;-52
2022/01/17 03:30:56;;;;;;;17.42;2.33;;;4.40;99.90;;;;;;5060778;28;20163;-54
2022/01/17 03:33:21;;;;;;;19.60;2.95;;;4.40;99.90;;;;;;5060147;28;20056;-52
2022/01/17 03:35:48;;;;;;;13.77;2.47;;;4.40;99.90;;;;;;5060316;28;20048;-54
2022/01/17 03:38:16;;;;;;;18.33;2.40;;;4.40;99.90;;;;;;5059906;28;20041;-52
2022/01/17 03:40:46;;;;;;;15.82;3.30;;;4.30;99.90;;;;;;5068204;28;20033;-51
2022/01/17 03:43:11;;;;;;;17.15;2.75;;;4.30;99.90;;;;;;5059391;28;20040;-51
2022/01/17 03:45:37;;;;;;;14.55;2.47;;;4.30;99.90;;;;;;5059776;28;20485;-52
2022/01/17 03:48:03;;;;;;;20.77;2.78;;;4.20;99.90;;;;;;5060613;28;20325;-52
2022/01/17 03:50:29;;;;;;;20.52;2.83;;;4.20;99.90;;;;;;5061252;28;20416;-50
2022/01/17 03:52:55;;;;;;;18.33;3.22;;;4.10;99.90;;;;;;5061235;28;20047;-51
2022/01/17 03:55:22;;;;;;;19.33;2.88;;;4.10;99.90;;;;;;5066876;28;20613;-53
2022/01/17 03:57:48;;;;;;;15.00;2.30;;;4.10;99.90;;;;;;5057638;28;21191;-52
2022/01/17 04:00:27;;;;;;;21.27;3.15;;;4.00;99.90;;;;;;5069270;28;20139;-50
2022/01/17 04:02:54;;;;;;;15.80;2.38;;;4.10;99.90;;;;;;5068363;28;20132;-52
2022/01/17 04:05:19;;;;;;;16.20;2.55;;;4.20;99.90;;;;;;5064865;28;21891;-52
2022/01/17 04:07:45;;;;;;;15.98;2.58;;;4.20;99.90;;;;;;5057292;28;20138;-54
2022/01/17 04:10:12;;;;;;;16.55;2.78;;;4.30;99.90;;;;;;5056132;28;20363;-52
2022/01/17 04:12:38;;;;;;;20.63;2.60;;;4.30;99.90;;;;;;5063235;28;20040;-52
2022/01/17 04:15:04;;;;;;;19.08;2.80;;;4.40;99.90;;;;;;5061828;28;20048;-52
2022/01/17 04:17:30;;;;;;;14.52;2.08;;;4.40;99.90;;;;;;5067186;28;20048;-53
2022/01/17 04:20:07;;;;;;;14.52;2.88;;;4.40;99.90;;;;;;5067155;28;20032;-52
2022/01/17 04:22:36;;;;;;;18.77;2.60;;;4.50;99.90;;;;;;5069309;28;20489;-51
2022/01/17 04:25:04;;;;;;;18.58;3.03;;;4.50;99.90;;;;;;5061583;28;20033;-51
2022/01/17 04:27:29;;;;;;;18.63;3.20;;;4.50;99.90;;;;;;5064723;28;20045;-53
2022/01/17 04:29:55;;;;;;;12.52;2.33;;;4.50;99.90;;;;;;5056877;28;20041;-52
2022/01/17 04:32:20;;;;;;;15.30;2.85;;;4.50;99.90;;;;;;5053742;28;20441;-50
2022/01/17 04:34:46;;;;;;;16.30;2.58;;;4.60;99.90;;;;;;5067752;28;20052;-49
2022/01/17 04:37:12;;;;;;;17.65;3.05;;;4.50;99.90;;;;;;5063489;28;20082;-53
2022/01/17 04:39:37;;;;;;;17.77;3.63;;;4.50;99.90;;;;;;5056273;28;20045;-50
2022/01/17 04:42:11;;;;;;;12.82;2.88;;;4.40;99.90;;;;;;5058334;28;20124;-53
2022/01/17 04:47:21;;;;;;;14.52;3.15;;;4.40;99.90;;;;;;5066580;28;20127;-53
2022/01/17 04:49:46;;;;;;;18.35;2.45;;;4.30;99.90;;;;;;5066148;28;20127;-49
2022/01/17 04:52:13;;;;;;;14.40;2.95;;;4.30;99.90;;;;;;5062596;28;20037;-53
2022/01/17 04:54:42;;;;;;;20.13;2.92;;;4.30;99.90;;;;;;5062592;28;20060;-53
2022/01/17 04:57:12;;;;;;;17.98;2.53;;;4.20;99.90;;;;;;5063406;28;20043;-49
2022/01/17 04:59:41;;;;;;;13.75;2.33;;;4.20;99.90;;;;;;5059681;28;20076;-55
2022/01/17 05:02:07;;;;;;;17.77;2.90;;;4.20;99.90;;;;;;5059791;28;20041;-52
2022/01/17 05:04:33;;;;;;;15.30;2.67;;;4.20;99.90;;;;;;5062970;28;20383;-51
2022/01/17 05:06:59;;;;;;;15.18;2.50;;;4.20;99.90;;;;;;5061227;28;20037;-50
2022/01/17 05:09:24;;;;;;;13.90;2.22;;;4.20;99.90;;;;;;5063741;28;20056;-50
2022/01/17 05:11:50;;;;;;;16.98;3.05;;;4.30;99.90;;;;;;5060443;28;20044;-51
2022/01/17 05:14:15;;;;;;;21.10;2.85;;;4.30;99.90;;;;;;5061769;28;20521;-50
2022/01/17 05:16:47;;;;;;;13.40;2.90;;;4.30;99.90;;;;;;5057288;28;20419;-49
2022/01/17 05:21:57;;;;;;;13.02;2.95;;;4.40;99.90;;;;;;5068112;28;20110;-49
2022/01/17 05:24:22;;;;;;;20.20;2.97;;;4.50;99.90;;;;;;5061508;28;20647;-51
2022/01/17 05:26:48;;;;;;;21.90;3.40;;;4.50;99.90;;;;;;5058654;28;20533;-53
2022/01/17 05:29:14;;;;;;;16.85;2.42;;;4.60;99.90;;;;;;5056413;28;20045;-49
2022/01/17 05:31:40;;;;;;;19.77;3.10;;;4.60;99.90;;;;;;5062277;28;20036;-53
2022/01/17 05:34:06;;;;;;;19.42;2.97;;;4.70;99.90;;;;;;5059203;28;20033;-52
2022/01/17 05:36:31;;;;;;;21.63;2.50;;;4.70;99.90;;;;;;5056619;28;20056;-52
2022/01/17 05:38:57;;;;;;;19.40;2.47;;;4.80;99.90;;;;;;5059196;28;20078;-49
2022/01/17 05:41:22;;;;;;;13.35;2.50;;;4.80;99.90;;;;;;5060807;28;20064;-54
2022/01/17 05:43:48;;;;;;;13.35;2.50;;;4.80;99.90;;;;;;5057252;28;20045;-52
2022/01/17 05:46:14;;;;;;;14.13;2.17;;;4.80;99.90;;;;;;5059840;28;20041;-53
2022/01/17 05:48:40;;;;;;;17.13;2.95;;;4.90;99.90;;;;;;5057634;28;20188;-53
2022/01/17 05:51:05;;;;;;;13.88;2.45;;;4.90;99.90;;;;;;5059585;28;20121;-52
2022/01/17 05:53:31;;;;;;;17.52;2.63;;;4.90;99.90;;;;;;5057367;28;20040;-50
2022/01/17 05:55:57;;;;;;;12.40;2.92;;;4.90;99.90;;;;;;5061379;28;20486;-50
2022/01/17 05:58:23;;;;;;;18.55;3.22;;;5.00;99.90;;;;;;5060169;28;20150;-51
2022/01/17 06:00:48;;;;;;;14.50;2.28;;;4.90;99.90;;;;;;5054790;28;20056;-51
2022/01/17 06:03:14;;;;;;;18.20;3.17;;;5.00;99.90;;;;;;5060640;28;20041;-50
2022/01/17 06:05:40;;;;;;;18.65;3.03;;;5.00;99.90;;;;;;5057191;28;20037;-52
2022/01/17 06:08:06;;;;;;;16.30;2.92;;;5.00;99.90;;;;;;5062453;28;20044;-51
2022/01/17 06:10:32;;;;;;;19.73;3.10;;;5.00;99.90;;;;;;5058518;28;20101;-51
2022/01/17 06:12:58;;;;;;;15.60;2.88;;;5.00;99.90;;;;;;5056820;28;20575;-53
2022/01/17 06:15:23;;;;;;;15.23;3.67;;;5.00;99.90;;;;;;5069944;28;20555;-54
2022/01/17 06:17:49;;;;;;;12.55;3.15;;;5.00;99.90;;;;;;5065861;28;20531;-53
2022/01/17 06:20:15;;;;;;;16.25;3.00;;;5.10;99.90;;;;;;5058137;28;20048;-52
2022/01/17 06:22:40;;;;;;;17.38;3.53;;;5.10;99.90;;;;;;5067053;28;20451;-49
2022/01/17 06:25:06;;;;;;;14.43;3.25;;;5.10;99.90;;;;;;5059744;28;20094;-53
2022/01/17 06:27:32;;;;;;;15.27;3.33;;;5.20;99.90;;;;;;5059405;28;20044;-51
2022/01/17 06:29:59;;;;;;;17.35;3.83;;;5.20;99.90;;;;;;5064033;28;20052;-50
2022/01/17 06:32:26;;;;;;;20.27;3.70;;;5.20;99.90;;;;;;5057227;28;20071;-52
2022/01/17 06:34:53;;;;;;;18.00;4.00;;;5.20;99.90;;;;;;5057283;28;20045;-54
2022/01/17 06:37:18;;;;;;;15.73;4.05;;;5.30;99.90;;;;;;5059912;28;20041;-53
2022/01/17 06:39:44;;;;;;;17.50;4.85;;;5.30;99.90;;;;;;5061671;28;20037;-50
2022/01/17 06:42:09;;;;;;;20.67;4.03;;;5.30;99.90;;;;;;5056040;28;20064;-52
2022/01/17 06:44:35;;;;;;;21.73;4.15;;;5.30;99.90;;;;;;5056927;28;20049;-51
2022/01/17 06:47:00;;;;;;;20.63;4.65;;;5.40;99.90;;;;;;5063767;28;20494;-53
2022/01/17 06:49:26;;;;;;;23.38;4.60;;;5.30;99.90;;;;;;5059133;28;20483;-53
2022/01/17 06:51:51;;;;;;;18.92;5.15;;;5.40;99.90;;;;;;5055403;28;20056;-51
2022/01/17 06:54:17;;;;;;;16.15;4.65;;;5.40;99.90;;;;;;5059211;28;20119;-52
2022/01/17 06:56:44;;;;;;;21.35;4.90;;;5.40;99.90;;;;;;5056309;28;20051;-50
2022/01/17 06:59:13;;;;;;;18.92;5.03;;;5.40;99.90;;;;;;5059892;28;20071;-49
2022/01/17 07:01:40;;;;;;;21.52;5.45;;;5.40;99.90;;;;;;5058877;28;20036;-53
2022/01/17 07:04:07;;;;;;;19.02;5.70;;;5.40;99.90;;;;;;5059469;28;20044;-49
2022/01/17 07:06:33;;;;;;;18.98;5.75;;;5.40;99.90;;;;;;5060520;28;20044;-49
2022/01/17 07:08:58;;;;;;;17.60;5.72;;;5.40;99.90;;;;;;5055366;28;20097;-53
2022/01/17 07:11:26;;;;;;;24.30;7.05;;;5.50;99.90;;;;;;5058075;28;20044;-49
2022/01/17 07:13:52;;;;;;;24.65;6.82;;;5.40;99.90;;;;;;5053244;28;20044;-51
2022/01/17 07:16:18;;;;;;;20.70;6.22;;;5.50;99.90;;;;;;5058068;28;20097;-48
2022/01/17 07:18:44;;;;;;;24.13;7.00;;;5.50;99.90;;;;;;5055272;28;20049;-51
2022/01/17 07:21:09;;;;;;;22.00;7.10;;;5.50;99.90;;;;;;5060085;28;20043;-54
2022/01/17 07:23:35;;;;;;;18.33;6.45;;;5.60;99.90;;;;;;5055340;28;20040;-52
2022/01/17 07:26:00;;;;;;;19.88;8.00;;;5.60;99.90;;;;;;5060760;28;20036;-50
2022/01/17 07:28:26;;;;;;;23.33;8.02;;;5.60;99.90;;;;;;5055681;28;20052;-51
2022/01/17 07:30:52;;;;;;;18.63;7.90;;;5.60;99.90;;;;;;5062783;28;20494;-52
2022/01/17 07:33:18;;;;;;;24.10;8.43;;;5.60;99.90;;;;;;5061010;28;20476;-50
2022/01/17 07:35:45;;;;;;;27.55;9.13;;;5.70;99.90;;;;;;5064926;28;20049;-50
2022/01/17 07:38:11;;;;;;;20.13;9.05;;;5.70;99.90;;;;;;5061967;28;20063;-53
2022/01/17 07:40:37;;;;;;;28.80;10.20;;;5.70;99.90;;;;;;5061521;28;20036;-52
2022/01/17 07:43:03;;;;;;;25.38;9.63;;;5.70;99.90;;;;;;5064545;28;20135;-50
2022/01/17 07:45:30;;;;;;;24.92;9.27;;;5.70;99.90;;;;;;5060457;28;20048;-54
2022/01/17 07:48:11;;;;;;;30.92;10.27;;;5.80;99.90;;;;;;5057683;28;20068;-51
2022/01/17 07:50:37;;;;;;;29.50;10.27;;;5.80;99.90;;;;;;5055541;28;20060;-53
2022/01/17 07:53:03;;;;;;;26.63;9.18;;;5.80;99.90;;;;;;5065443;28;20112;-53
2022/01/17 07:55:29;;;;;;;30.30;10.00;;;5.80;99.90;;;;;;5064744;28;20048;-49
2022/01/17 07:57:55;;;;;;;25.77;10.02;;;5.90;99.90;;;;;;5058647;28;20032;-55
2022/01/17 08:00:22;;;;;;;25.25;9.48;;;5.90;99.90;;;;;;5058693;28;20049;-50
2022/01/17 08:02:50;;;;;;;29.70;9.82;;;5.90;99.90;;;;;;5053940;28;20041;-49
2022/01/17 08:05:16;;;;;;;24.58;8.35;;;5.90;99.90;;;;;;5059557;28;20116;-50
2022/01/17 08:07:43;;;;;;;25.35;9.35;;;5.90;99.90;;;;;;5062332;28;20387;-53
2022/01/17 08:10:12;;;;;;;27.40;8.18;;;6.00;99.90;;;;;;5062920;28;20060;-52
2022/01/17 08:12:42;;;;;;;30.40;8.85;;;6.00;99.90;;;;;;5059325;28;20056;-51
2022/01/17 08:15:09;;;;;;;28.42;9.13;;;6.00;99.90;;;;;;5061597;28;20063;-49
2022/01/17 08:17:35;;;;;;;22.42;8.23;;;6.00;99.90;;;;;;5063053;28;20517;-50
2022/01/17 08:20:00;;;;;;;25.60;8.73;;;6.00;99.90;;;;;;5061634;28;20052;-52
2022/01/17 08:22:26;;;;;;;28.92;8.43;;;6.00;99.90;;;;;;5066082;28;20059;-49
2022/01/17 08:24:51;;;;;;;27.40;7.85;;;6.00;99.90;;;;;;5070107;28;21874;-50
2022/01/17 08:27:17;;;;;;;27.23;8.20;;;6.00;99.90;;;;;;5069024;28;20164;-50
2022/01/17 08:29:42;;;;;;;29.10;7.55;;;6.00;99.90;;;;;;5064520;28;20507;-51
2022/01/17 08:32:09;;;;;;;27.52;7.68;;;6.10;99.90;;;;;;5060158;28;20576;-55
2022/01/17 08:34:34;;;;;;;28.58;7.53;;;6.10;99.90;;;;;;5056968;28;20049;-53
2022/01/17 08:37:02;;;;;;;28.58;6.95;;;6.10;99.90;;;;;;5060231;28;20525;-48
2022/01/17 08:39:27;;;;;;;25.35;6.53;;;6.20;99.90;;;;;;5060258;28;20041;-52
2022/01/17 08:41:54;;;;;;;32.97;7.85;;;6.20;99.90;;;;;;5064199;28;20032;-52
2022/01/17 08:44:20;;;;;;;25.13;6.95;;;6.20;99.90;;;;;;5061642;28;20071;-48
2022/01/17 08:46:46;;;;;;;28.48;5.70;;;6.20;99.90;;;;;;5062181;28;20495;-49
2022/01/17 08:49:12;;;;;;;32.42;7.13;;;6.20;99.90;;;;;;5067830;28;20059;-52
2022/01/17 08:51:38;;;;;;;26.17;6.43;;;6.20;99.90;;;;;;5062109;28;20045;-51
2022/01/17 08:54:04;;;;;;;32.70;5.75;;;6.20;99.90;;;;;;5058143;28;20040;-50
2022/01/17 08:56:31;;;;;;;27.65;5.80;;;6.20;99.90;;;;;;5059316;28;20470;-49
2022/01/17 08:59:02;;;;;;;23.35;5.85;;;6.30;99.90;;;;;;5057657;28;20051;-52
2022/01/17 09:01:28;;;;;;;31.65;5.80;;;6.30;99.90;;;;;;5061556;28;20713;-53
2022/01/17 09:03:53;;;;;;;29.17;5.38;;;6.30;99.90;;;;;;5059971;28;20094;-52
2022/01/17 09:06:19;;;;;;;26.88;5.22;;;6.40;99.90;;;;;;5057935;28;20052;-49
2022/01/17 09:08:45;;;;;;;26.50;5.22;;;6.40;99.90;;;;;;5058619;28;20032;-52
2022/01/17 09:11:11;;;;;;;21.88;4.63;;;6.40;99.90;;;;;;5060424;28;20525;-48
2022/01/17 09:13:36;;;;;;;33.53;5.25;;;6.50;99.90;;;;;;5058166;28;20029;-50
2022/01/17 09:16:02;;;;;;;29.95;5.53;;;6.50;99.90;;;;;;5059468;28;20048;-51
2022/01/17 09:18:28;;;;;;;33.95;5.32;;;6.50;99.90;;;;;;5056908;28;20735;-49
2022/01/17 09:20:54;;;;;;;27.20;4.70;;;6.60;99.90;;;;;;5060176;28;20406;-50
2022/01/17 09:23:20;;;;;;;22.90;4.35;;;6.60;99.90;;;;;;5063041;28;20071;-48
2022/01/17 09:25:46;;;;;;;28.10;5.05;;;6.70;99.90;;;;;;5056456;28;20119;-49
2022/01/17 09:28:12;;;;;;;26.77;4.75;;;6.70;99.90;;;;;;5070370;28;20120;-49
2022/01/17 09:30:37;;;;;;;24.67;4.38;;;6.70;99.90;;;;;;5063492;28;20394;-49
2022/01/17 09:33:03;;;;;;;24.65;4.50;;;6.80;99.90;;;;;;5058299;28;20154;-48
2022/01/17 09:35:30;;;;;;;28.08;5.18;;;6.80;99.90;;;;;;5069530;28;20052;-50
2022/01/17 09:37:56;;;;;;;26.25;5.10;;;6.80;99.90;;;;;;5068832;28;20041;-54
2022/01/17 09:40:22;;;;;;;26.10;4.72;;;6.80;99.90;;;;;;5061437;28;20421;-49
2022/01/17 09:42:48;;;;;;;27.17;4.22;;;6.90;99.90;;;;;;5060401;28;20047;-48
2022/01/17 09:45:16;;;;;;;27.10;4.43;;;6.90;99.90;;;;;;5053166;28;20029;-52
2022/01/17 09:47:43;;;;;;;30.02;4.93;;;7.00;99.90;;;;;;5056559;28;20032;-49
2022/01/17 09:50:12;;;;;;;31.67;5.13;;;7.00;99.90;;;;;;5063459;28;20032;-53
2022/01/17 09:52:46;;;;;;;33.88;5.05;;;7.10;99.90;;;;;;5067776;28;20131;-53
2022/01/17 09:55:15;;;;;;;28.35;5.03;;;7.10;99.90;;;;;;5060457;28;20127;-54
2022/01/17 09:57:45;;;;;;;30.55;4.85;;;;;;;;;;5070522;28;20040;-51
2022/01/17 10:00:12;;;;;;;27.52;5.97;;;;;;;;;;5061945;28;20127;-52
2022/01/17 10:02:39;;;;;;;38.03;6.85;;;;;;;;;;5061177;28;20127;-49
2022/01/17 10:05:08;;;;;;;30.65;4.65;;;;;;;;;;5065634;28;20534;-53
2022/01/17 10:07:52;;;;;;;31.65;5.22;;;;;;;;;;5063856;28;20492;-52
2022/01/17 10:10:33;;;;;;;31.40;5.32;;;;;;;;;;5062385;28;20036;-52
2022/01/17 10:13:04;;;;;;;32.90;5.30;;;;;;;;;;5061792;28;20053;-49
2022/01/17 10:15:43;;;;;;;33.08;5.72;;;;;;;;;;5061703;28;20049;-51
2022/01/17 10:18:22;;;;;;;27.00;5.03;;;;;;;;;;5062706;28;20055;-50
2022/01/17 10:20:54;;;;;;;30.10;4.82;;;;;;;;;;5061052;28;20051;-51
2022/01/17 10:23:38;;;;;;;28.25;5.05;;;;;;;;;;5061113;28;20052;-53
2022/01/17 10:26:12;;;;;;;31.52;4.72;;;;;;;;;;5061630;28;20046;-54
2022/01/17 10:29:06;;;;;;;27.23;4.85;;;;;;;;;;5058784;28;20155;-50
2022/01/17 10:37:07;;;;;;;37.08;5.65;;;;;;;;;;5067526;28;20110;-49
2022/01/17 10:39:37;;;;;;;32.17;5.30;;;;;;;;;;5061023;28;20444;-51
2022/01/17 10:42:23;;;;;;;31.90;5.00;;;;;;;;;;5066366;28;20041;-50
2022/01/17 10:44:49;;;;;;;34.85;6.35;;;;;;;;;;5063949;28;20491;-51
2022/01/17 10:47:23;;;;;;;39.65;5.50;;;;;;;;;;5061389;28;20453;-52
2022/01/17 10:49:50;;;;;;;30.13;5.35;;;;;;;;;;5058463;28;20052;-52
2022/01/17 10:52:28;;;;;;;32.22;5.72;;;;;;;;;;5057478;28;20036;-50
2022/01/17 10:54:56;;;;;;;33.72;5.25;;;;;;;;;;5064536;28;20056;-54
2022/01/17 10:57:22;;;;;;;;;;;;;;;;;;5064549;28;20398;-52
2022/01/17 10:59:51;;;;;;;35.25;5.28;;;;;;;;;;5059695;28;19928;-52
2022/01/17 11:02:18;;;;;;;34.80;5.00;;;;;;;;;;5062793;28;20044;-53
2022/01/17 11:04:44;;;;;;;29.10;5.43;;;;;;;;;;5062933;28;20044;-52
2022/01/17 11:07:10;;;;;;;34.80;5.35;;;;;;;;;;5068450;28;20494;-51
2022/01/17 11:09:43;;;;;;;27.30;4.95;;;;;;;;;;5068830;28;20047;-53
2022/01/17 11:12:14;;;;;;;36.00;6.32;;;;;;;;;;5063350;28;20059;-54
2022/01/17 11:14:41;;;;;;;30.80;5.45;;;;;;;;;;5060657;28;20067;-54
2022/01/17 11:17:20;;;;;;;34.58;5.50;;;;;;;;;;5066491;28;20050;-53
2022/01/17 11:22:33;;;;;;;35.78;5.82;;;;;;;;;;5062019;28;20052;-53
2022/01/17 11:24:59;;;;;;;31.77;5.70;;;;;;;;;;5054667;28;20044;-50
2022/01/17 11:27:26;;;;;;;30.15;5.82;;;9.20;99.90;;;;;;5064364;28;20045;-50
2022/01/17 11:29:52;;;;;;;30.85;5.57;;;9.30;99.90;;;;;;5059223;28;20044;-52
2022/01/17 11:32:18;;;;;;;34.58;6.03;;;9.30;99.90;;;;;;5066658;28;20127;-50
2022/01/17 11:34:43;;;;;;;30.17;5.65;;;9.20;99.90;;;;;;5056428;28;20049;-48
2022/01/17 11:37:11;;;;;;;35.25;5.68;;;9.20;99.90;;;;;;5062900;28;20041;-52
2022/01/17 11:39:54;;;;;;;29.17;5.73;;;9.20;99.90;;;;;;5063373;28;20052;-55
2022/01/17 11:42:30;;;;;;;31.30;4.65;;;9.20;99.90;;;;;;5060089;28;20068;-54
2022/01/17 11:44:56;;;;;;;40.42;6.72;;;9.20;99.90;;;;;;5062127;28;20041;-53
2022/01/17 11:47:47;;;;;;;28.85;5.50;;;9.10;99.90;;;;;;5052387;28;20067;-53
2022/01/17 11:50:30;;;;;;;39.67;6.50;;;9.10;99.90;;;;;;5054968;28;20360;-50
2022/01/17 11:53:03;;;;;;;36.88;5.65;;;9.20;99.90;;;;;;5070011;28;20134;-49
2022/01/17 11:55:43;;;;;;;30.48;6.07;;;9.20;99.90;;;;;;5062465;28;20048;-51
2022/01/17 11:58:37;;;;;;;33.83;5.95;;;9.30;99.90;;;;;;5064036;28;20360;-50
2022/01/17 12:01:02;;;;;;;33.50;6.30;;;9.40;99.90;;;;;;5064588;28;20055;-50
2022/01/17 12:03:42;;;;;;;30.10;5.32;;;9.50;99.90;;;;;;5064364;28;20045;-52
2022/01/17 12:06:21;;;;;;;40.25;6.22;;;9.50;99.90;;;;;;5062335;28;20376;-54
2022/01/17 12:08:49;;;;;;;31.42;5.65;;;9.60;99.90;;;;;;5059494;28;20071;-51
2022/01/17 12:11:29;;;;;;;38.53;7.47;;;9.70;99.90;;;;;;5075860;28;20065;-52
2022/01/17 12:14:00;;;;;;;40.53;6.65;;;9.70;99.90;;;;;;5064802;28;20041;-51
2022/01/17 12:16:29;;;;;;;38.47;7.03;;;9.70;99.90;;;;;;5065729;28;20056;-54
2022/01/17 12:18:58;;;;;;;34.08;5.80;;;9.70;99.90;;;;;;5065854;28;20040;-53
2022/01/17 12:21:40;;;;;;;35.85;6.30;;;9.70;99.90;;;;;;5062383;28;20045;-53
2022/01/17 12:24:18;;;;;;;32.40;6.13;;;9.70;99.90;;;;;;5061078;28;20094;-52
2022/01/17 12:27:00;;;;;;;33.35;5.60;;;9.90;99.90;;;;;;5062249;28;20057;-53
2022/01/17 12:29:46;;;;;;;31.65;5.65;;;9.90;99.90;;;;;;5058463;28;20568;-49
2022/01/17 12:32:35;;;;;;;31.88;5.55;;;9.90;99.90;;;;;;5066294;28;20128;-48
2022/01/17 12:35:04;;;;;;;29.63;6.22;;;9.90;99.90;;;;;;5061112;28;20052;-53
2022/01/17 12:37:39;;;;;;;27.65;5.50;;;9.90;99.90;;;;;;5058555;28;21427;-50
2022/01/17 12:40:13;;;;;;;31.30;6.05;;;9.90;99.90;;;;;;5058753;28;20450;-52
2022/01/17 12:42:53;;;;;;;31.02;5.93;;;9.90;99.90;;;;;;5061213;28;20039;-53
2022/01/17 12:45:37;;;;;;;28.00;4.95;;;9.80;99.90;;;;;;5046964;28;20193;-53
2022/01/17 12:48:07;;;;;;;29.02;5.50;;;9.80;99.90;;;;;;5058464;28;20048;-51
2022/01/17 12:50:36;;;;;;;30.08;6.30;;;9.80;99.90;;;;;;5064383;28;20109;-49
2022/01/17 12:53:03;;;;;;;26.83;5.53;;;9.80;99.90;;;;;;5062182;28;21192;-52
2022/01/17 12:55:36;;;;;;;23.55;4.93;;;9.80;99.90;;;;;;5063499;28;20044;-53
2022/01/17 12:58:09;;;;;;;24.75;4.82;;;9.80;99.90;;;;;;5066045;28;20032;-52
2022/01/17 13:00:34;;;;;;;32.88;5.70;;;9.90;99.90;;;;;;5067426;28;20095;-49
2022/01/17 13:03:00;;;;;;;29.85;5.18;;;10.00;99.90;;;;;;5072337;28;20506;-50
2022/01/17 13:05:30;;;;;;;23.67;4.95;;;10.10;99.90;;;;;;5071990;28;20391;-54
2022/01/17 13:07:56;;;;;;;28.17;4.85;;;10.10;99.90;;;;;;5066248;28;20071;-53
2022/01/17 13:10:21;;;;;;;26.63;5.30;;;10.00;99.90;;;;;;5068414;28;20423;-49
2022/01/17 13:12:51;;;;;;;29.20;5.25;;;10.00;99.90;;;;;;5058922;28;20400;-50
2022/01/17 13:15:17;;;;;;;23.67;4.35;;;10.00;99.90;;;;;;5067445;28;20052;-51
2022/01/17 13:17:43;;;;;;;29.80;5.05;;;10.00;99.90;;;;;;5066226;28;20033;-48
2022/01/17 13:20:09;;;;;;;28.17;5.30;;;9.90;99.90;;;;;;5067558;28;20049;-54